Time;durP1;ratioP1;P1;durP2;ratioP2;P2;SDS_P1;SDS_P2;PMS_P1;PMS_P2;Temp;Humidity;BMP_temperature;BMP_pressure;BME280_temperature;BME280_humidity;BME280_pressure;Samples;Min_cycle;Max_cycle;Signal;HPM_P1;HPM_P2
2022/05/31 00:00:59;;;;;;;2.70;1.00;;;14.60;90.90;;;;;;5082386;27;20048;-79
2022/05/31 00:03:25;;;;;;;4.45;1.38;;;14.60;91.20;;;;;;5083122;28;20917;-79
2022/05/31 00:05:51;;;;;;;1.88;1.52;;;14.60;91.00;;;;;;5080539;28;20051;-79
2022/05/31 00:08:17;;;;;;;1.80;1.17;;;14.60;91.00;;;;;;5082912;28;20040;-79
2022/05/31 00:10:43;;;;;;;4.60;1.30;;;14.50;91.10;;;;;;5079700;28;20044;-79
2022/05/31 00:13:09;;;;;;;2.75;1.27;;;14.50;91.10;;;;;;5084094;27;20474;-79
2022/05/31 00:15:35;;;;;;;1.75;1.10;;;14.50;91.20;;;;;;5082070;28;20079;-79
2022/05/31 00:18:01;;;;;;;1.30;1.10;;;14.40;91.20;;;;;;5083067;28;20531;-79
2022/05/31 00:20:27;;;;;;;1.23;0.88;;;14.40;91.20;;;;;;5085603;28;20082;-79
2022/05/31 00:22:53;;;;;;;4.35;1.35;;;14.40;91.30;;;;;;5084790;28;20717;-80
2022/05/31 00:25:19;;;;;;;1.40;1.17;;;14.40;91.30;;;;;;5086955;28;20563;-80
2022/05/31 00:27:45;;;;;;;1.63;1.15;;;14.30;91.40;;;;;;5086009;28;20056;-80
2022/05/31 00:30:13;;;;;;;2.42;1.00;;;14.40;91.40;;;;;;5084101;28;20414;-79
2022/05/31 00:32:47;;;;;;;2.13;1.30;;;14.30;91.50;;;;;;5084401;27;20158;-80
2022/05/31 00:35:17;;;;;;;2.40;1.30;;;14.40;91.50;;;;;;5085635;28;20040;-79
2022/05/31 00:37:44;;;;;;;1.42;1.33;;;14.40;91.60;;;;;;5082506;27;20071;-80
2022/05/31 00:40:12;;;;;;;3.20;1.27;;;14.40;91.60;;;;;;5085008;28;21818;-80
2022/05/31 00:42:49;;;;;;;2.95;1.40;;;14.40;91.60;;;;;;5084192;28;20642;-80
2022/05/31 00:45:16;;;;;;;1.40;1.25;;;14.40;91.70;;;;;;5085231;28;20049;-80
2022/05/31 00:47:42;;;;;;;2.15;1.25;;;14.40;91.70;;;;;;5085399;27;20036;-80
2022/05/31 00:50:19;;;;;;;2.88;1.88;;;14.50;91.70;;;;;;5083133;27;20040;-80
2022/05/31 00:52:48;;;;;;;3.58;1.48;;;14.40;91.70;;;;;;5084394;28;20125;-80
2022/05/31 00:55:28;;;;;;;2.45;1.90;;;14.50;91.80;;;;;;5090278;28;20070;-80
2022/05/31 00:58:21;;;;;;;2.47;1.30;;;14.50;91.80;;;;;;5082464;28;20032;-80
2022/05/31 01:00:50;;;;;;;3.40;1.15;;;14.50;91.90;;;;;;5070169;27;20203;-80
2022/05/31 01:03:18;;;;;;;4.35;1.60;;;14.50;91.90;;;;;;5084834;28;20044;-80
2022/05/31 01:05:45;;;;;;;1.63;1.00;;;14.50;91.90;;;;;;5084747;28;20621;-80
2022/05/31 01:08:11;;;;;;;2.58;1.35;;;14.50;92.00;;;;;;5084432;27;20149;-79
2022/05/31 01:10:40;;;;;;;5.70;1.95;;;14.50;92.00;;;;;;5084810;28;20044;-80
2022/05/31 01:13:05;;;;;;;2.20;1.15;;;14.50;92.00;;;;;;5085776;28;20063;-80
2022/05/31 01:15:32;;;;;;;1.83;1.08;;;14.50;92.00;;;;;;5081474;27;20048;-79
2022/05/31 01:17:57;;;;;;;2.55;1.80;;;14.50;92.00;;;;;;5085790;28;21174;-79
2022/05/31 01:20:23;;;;;;;2.05;1.35;;;14.50;92.00;;;;;;5083951;27;21220;-80
2022/05/31 01:22:52;;;;;;;5.90;1.50;;;14.50;92.00;;;;;;5084359;28;20047;-79
2022/05/31 01:25:21;;;;;;;2.35;1.20;;;14.50;92.10;;;;;;5083341;28;20048;-80
2022/05/31 01:27:56;;;;;;;2.08;1.20;;;14.50;92.10;;;;;;5084386;28;20055;-79
2022/05/31 01:30:22;;;;;;;1.95;1.65;;;14.50;92.10;;;;;;5083823;28;20044;-80
2022/05/31 01:33:07;;;;;;;2.15;1.38;;;14.50;92.10;;;;;;5084538;27;20615;-80
2022/05/31 01:35:34;;;;;;;2.55;1.13;;;14.50;92.10;;;;;;5100245;27;20052;-80
2022/05/31 01:38:11;;;;;;;1.27;0.98;;;14.50;92.20;;;;;;5083528;27;20036;-80
2022/05/31 01:40:44;;;;;;;3.33;1.73;;;14.50;92.10;;;;;;5084870;27;20044;-80
2022/05/31 01:43:10;;;;;;;3.40;2.17;;;14.50;92.10;;;;;;5083449;27;20596;-80
2022/05/31 01:45:46;;;;;;;2.05;1.23;;;14.50;92.10;;;;;;5084559;27;20101;-80
2022/05/31 01:48:12;;;;;;;1.90;1.17;;;14.50;92.10;;;;;;5082922;28;20060;-80
2022/05/31 01:50:39;;;;;;;5.68;1.17;;;14.50;92.10;;;;;;5085075;28;20040;-80
2022/05/31 01:53:07;;;;;;;1.98;1.25;;;14.40;92.10;;;;;;5079898;27;21312;-79
2022/05/31 01:55:34;;;;;;;1.58;1.05;;;14.40;92.10;;;;;;5084717;28;20102;-80
2022/05/31 01:58:02;;;;;;;1.50;1.17;;;14.40;92.10;;;;;;5083786;28;20040;-80
2022/05/31 02:00:28;;;;;;;3.00;1.40;;;14.40;92.10;;;;;;5082640;27;20048;-80
2022/05/31 02:02:58;;;;;;;1.98;1.25;;;14.40;92.10;;;;;;5082052;28;20622;-80
2022/05/31 02:05:24;;;;;;;2.55;1.20;;;14.40;92.20;;;;;;5085164;27;20043;-80
2022/05/31 02:07:59;;;;;;;3.25;1.50;;;14.40;92.20;;;;;;5084324;27;20044;-80
2022/05/31 02:10:25;;;;;;;2.55;1.20;;;14.40;92.20;;;;;;5092169;27;20040;-80
2022/05/31 02:12:51;;;;;;;3.83;1.38;;;14.40;92.20;;;;;;5098401;27;20040;-80
2022/05/31 02:15:18;;;;;;;1.90;1.23;;;14.60;92.20;;;;;;5081040;27;20048;-80
2022/05/31 02:18:14;;;;;;;3.72;1.42;;;14.40;92.20;;;;;;5083184;28;20602;-80
2022/05/31 02:20:40;;;;;;;2.60;1.25;;;14.40;92.20;;;;;;5082988;28;20633;-79
2022/05/31 02:23:06;;;;;;;3.80;1.30;;;14.30;92.20;;;;;;5083621;27;20055;-80
2022/05/31 02:25:32;;;;;;;2.63;1.60;;;14.40;92.30;;;;;;5085332;28;21088;-80
2022/05/31 02:27:58;;;;;;;2.00;1.20;;;14.40;92.30;;;;;;5084201;27;20041;-79
2022/05/31 02:30:39;;;;;;;1.75;1.27;;;14.40;92.30;;;;;;5082800;28;20050;-80
2022/05/31 02:33:28;;;;;;;1.75;1.40;;;14.40;92.30;;;;;;5082036;28;20044;-80
2022/05/31 02:39:11;;;;;;;1.40;1.10;;;14.40;92.40;;;;;;5073710;28;20047;-80
2022/05/31 02:42:00;;;;;;;2.13;1.15;;;14.20;92.40;;;;;;5089308;28;20171;-79
2022/05/31 02:44:26;;;;;;;1.95;1.17;;;14.30;92.40;;;;;;5081732;28;20044;-80
2022/05/31 02:46:53;;;;;;;2.00;1.13;;;14.30;92.40;;;;;;5083090;27;20032;-79
2022/05/31 02:49:18;;;;;;;1.95;1.30;;;14.20;92.40;;;;;;5081279;28;20075;-79
2022/05/31 02:51:46;;;;;;;2.17;1.40;;;14.20;92.40;;;;;;5081872;28;20621;-79
2022/05/31 02:54:15;;;;;;;2.53;1.60;;;14.20;92.40;;;;;;5081264;28;20530;-79
2022/05/31 02:56:40;;;;;;;3.85;1.75;;;14.20;92.50;;;;;;5084121;27;20134;-79
2022/05/31 02:59:07;;;;;;;2.53;1.27;;;14.20;92.50;;;;;;5083905;27;20037;-79
2022/05/31 03:01:37;;;;;;;2.65;1.30;;;14.20;92.50;;;;;;5082165;28;20034;-79
2022/05/31 03:04:05;;;;;;;3.25;2.22;;;14.20;92.50;;;;;;5083516;28;20047;-79
2022/05/31 03:06:31;;;;;;;6.68;1.42;;;14.20;92.50;;;;;;5083500;28;20064;-79
2022/05/31 03:08:58;;;;;;;2.30;1.10;;;14.20;92.60;;;;;;5081559;28;20060;-80
2022/05/31 03:11:32;;;;;;;4.40;1.70;;;14.20;92.60;;;;;;5082397;28;20048;-80
2022/05/31 03:14:13;;;;;;;1.75;1.30;;;14.20;92.70;;;;;;5081978;27;20523;-80
2022/05/31 03:16:42;;;;;;;2.28;1.38;;;14.20;92.70;;;;;;5082789;27;20045;-79
2022/05/31 03:19:14;;;;;;;2.90;1.20;;;14.20;92.70;;;;;;5079047;28;20032;-80
2022/05/31 03:21:48;;;;;;;2.25;1.40;;;14.20;92.80;;;;;;5080610;28;20040;-80
2022/05/31 03:24:24;;;;;;;2.83;1.38;;;14.10;92.80;;;;;;5082017;27;20068;-80
2022/05/31 03:26:52;;;;;;;1.88;1.60;;;14.10;92.80;;;;;;5082172;28;20051;-80
2022/05/31 03:29:18;;;;;;;2.15;1.05;;;14.10;92.90;;;;;;5081371;28;20188;-80
2022/05/31 03:31:44;;;;;;;6.88;1.20;;;14.10;92.90;;;;;;5082807;28;20056;-80
2022/05/31 03:34:10;;;;;;;3.67;1.10;;;14.00;92.90;;;;;;5081297;28;20098;-80
2022/05/31 03:36:36;;;;;;;2.50;1.48;;;14.00;93.00;;;;;;5082995;28;20849;-80
2022/05/31 03:39:02;;;;;;;2.75;1.20;;;13.80;93.20;;;;;;5082197;28;20456;-79
2022/05/31 03:41:33;;;;;;;2.58;1.17;;;13.80;93.20;;;;;;5083557;27;20048;-80
2022/05/31 03:43:58;;;;;;;4.18;1.10;;;13.70;93.30;;;;;;5078994;28;20245;-80
2022/05/31 03:46:25;;;;;;;2.90;1.50;;;13.70;93.40;;;;;;5079627;27;20117;-80
2022/05/31 03:48:51;;;;;;;3.30;1.35;;;13.70;93.50;;;;;;5081526;28;20044;-80
2022/05/31 03:51:16;;;;;;;1.55;1.20;;;13.70;93.60;;;;;;5082027;28;20036;-80
2022/05/31 03:53:42;;;;;;;2.25;1.38;;;13.70;93.70;;;;;;5086039;27;20075;-79
2022/05/31 03:56:11;;;;;;;2.25;1.17;;;13.60;93.80;;;;;;5090601;27;20118;-80
2022/05/31 03:58:39;;;;;;;3.00;1.20;;;13.60;94.00;;;;;;5087395;27;20071;-80
2022/05/31 04:01:04;;;;;;;1.73;1.30;;;13.70;94.10;;;;;;5082155;27;20044;-80
2022/05/31 04:03:30;;;;;;;1.20;0.95;;;13.60;94.10;;;;;;5086470;28;20040;-80
2022/05/31 04:05:56;;;;;;;1.38;1.00;;;13.70;94.30;;;;;;5083099;28;20044;-80
2022/05/31 04:08:22;;;;;;;2.13;0.98;;;13.70;94.30;;;;;;5082451;28;20032;-80
2022/05/31 04:10:48;;;;;;;4.15;1.73;;;13.70;94.40;;;;;;5084694;28;20119;-79
2022/05/31 04:13:19;;;;;;;1.80;1.27;;;13.70;94.40;;;;;;5083390;27;20084;-80
2022/05/31 04:15:45;;;;;;;2.30;1.15;;;13.70;94.50;;;;;;5085382;27;20091;-80
2022/05/31 04:18:11;;;;;;;2.88;1.40;;;13.70;94.60;;;;;;5085102;28;20162;-80
2022/05/31 04:20:37;;;;;;;1.48;1.23;;;13.70;94.70;;;;;;5086614;28;20072;-80
2022/05/31 04:25:49;;;;;;;2.35;1.27;;;13.70;94.80;;;;;;5086054;28;20039;-80
2022/05/31 04:28:15;;;;;;;1.42;1.10;;;13.70;94.80;;;;;;5083917;27;20040;-80
2022/05/31 04:30:44;;;;;;;1.80;1.27;;;13.70;95.10;;;;;;5084762;27;20059;-80
2022/05/31 04:33:11;;;;;;;3.63;1.25;;;13.70;95.00;;;;;;5085490;27;20048;-80
2022/05/31 04:35:37;;;;;;;2.03;1.02;;;13.70;95.00;;;;;;5082486;28;20535;-80
2022/05/31 04:38:03;;;;;;;2.38;1.92;;;13.70;95.10;;;;;;5085279;28;20166;-80
2022/05/31 04:40:28;;;;;;;2.67;1.40;;;13.80;95.20;;;;;;5092430;27;20602;-80
2022/05/31 04:42:54;;;;;;;2.08;1.10;;;13.80;95.20;;;;;;5085394;28;21201;-80
2022/05/31 04:45:20;;;;;;;1.85;1.10;;;13.90;95.30;;;;;;5084199;27;20044;-80
2022/05/31 04:47:46;;;;;;;2.22;1.23;;;13.90;95.40;;;;;;5085012;27;20913;-81
2022/05/31 04:50:12;;;;;;;6.43;1.27;;;13.90;95.30;;;;;;5084898;28;20205;-80
2022/05/31 04:52:39;;;;;;;3.22;1.40;;;14.00;95.40;;;;;;5084720;27;20048;-80
2022/05/31 04:55:05;;;;;;;3.83;1.30;;;14.00;95.40;;;;;;5085558;28;20052;-80
2022/05/31 04:57:30;;;;;;;2.75;1.55;;;14.00;95.40;;;;;;5081808;27;20044;-80
2022/05/31 04:59:56;;;;;;;3.17;1.20;;;14.00;95.50;;;;;;5085635;27;20142;-80
2022/05/31 05:02:22;;;;;;;3.38;1.58;;;14.00;95.60;;;;;;5082406;27;20072;-80
2022/05/31 05:04:48;;;;;;;4.85;1.80;;;14.00;95.60;;;;;;5084546;28;20070;-80
2022/05/31 05:07:14;;;;;;;2.40;1.50;;;14.00;95.60;;;;;;5084991;27;20436;-81
2022/05/31 05:09:39;;;;;;;2.53;1.30;;;14.00;95.60;;;;;;5086069;27;20081;-81
2022/05/31 05:12:05;;;;;;;1.80;1.20;;;14.10;95.70;;;;;;5082842;28;20055;-80
2022/05/31 05:14:31;;;;;;;2.22;1.40;;;14.10;95.70;;;;;;5083955;27;20234;-80
2022/05/31 05:16:58;;;;;;;2.58;1.27;;;14.10;95.70;;;;;;5085350;28;20046;-81
2022/05/31 05:19:23;;;;;;;3.88;1.40;;;14.10;95.70;;;;;;5083646;28;20111;-79
2022/05/31 05:21:49;;;;;;;3.25;1.65;;;14.00;95.70;;;;;;5083111;28;20051;-79
2022/05/31 05:24:15;;;;;;;3.90;1.50;;;14.00;95.70;;;;;;5080131;28;20032;-83
2022/05/31 05:26:40;;;;;;;3.10;1.48;;;14.00;95.70;;;;;;5082147;28;20048;-81
2022/05/31 05:31:56;;;;;;;7.38;1.85;;;13.90;95.80;;;;;;5082570;28;20044;-79
2022/05/31 05:34:22;;;;;;;6.82;2.97;;;13.90;95.80;;;;;;5081716;28;20051;-80
2022/05/31 05:36:47;;;;;;;3.97;1.50;;;13.90;95.90;;;;;;5081650;28;20654;-80
2022/05/31 05:39:14;;;;;;;3.13;2.10;;;14.00;96.00;;;;;;5085445;28;20087;-81
2022/05/31 05:41:40;;;;;;;4.88;1.58;;;14.10;96.10;;;;;;5086161;28;20135;-81
2022/05/31 05:44:07;;;;;;;4.40;1.48;;;14.10;96.10;;;;;;5083624;27;20552;-80
2022/05/31 05:46:33;;;;;;;3.88;2.00;;;14.20;96.20;;;;;;5099658;27;20087;-81
2022/05/31 05:48:59;;;;;;;4.47;1.90;;;14.30;96.20;;;;;;5083467;28;20074;-80
2022/05/31 05:51:28;;;;;;;2.58;1.50;;;14.40;96.30;;;;;;5087974;27;20796;-80
2022/05/31 05:53:54;;;;;;;3.28;1.73;;;14.50;96.30;;;;;;5085201;28;20043;-80
2022/05/31 05:56:21;;;;;;;5.15;2.35;;;14.50;96.20;;;;;;5082560;27;20041;-77
2022/05/31 05:58:47;;;;;;;2.80;1.58;;;14.60;96.20;;;;;;5086752;28;20043;-78
2022/05/31 06:01:34;;;;;;;2.00;1.40;;;14.60;96.20;;;;;;5085826;27;20104;-77
2022/05/31 06:04:20;;;;;;;2.40;1.63;;;14.60;96.20;;;;;;5087254;27;20044;-77
2022/05/31 06:06:47;;;;;;;2.10;1.30;;;14.50;96.10;;;;;;5086264;28;20044;-76
2022/05/31 06:09:20;;;;;;;3.90;1.65;;;14.50;96.20;;;;;;5085959;28;20044;-76
2022/05/31 06:11:53;;;;;;;4.00;1.63;;;14.50;96.20;;;;;;5085594;27;20051;-76
2022/05/31 06:14:18;;;;;;;3.58;1.52;;;14.60;96.30;;;;;;5082780;28;20051;-77
2022/05/31 06:16:52;;;;;;;5.57;2.30;;;14.60;96.30;;;;;;5084952;28;20044;-77
2022/05/31 06:19:23;;;;;;;5.47;2.80;;;14.70;96.40;;;;;;5084712;28;20052;-78
2022/05/31 06:21:51;;;;;;;3.58;1.88;;;14.70;96.40;;;;;;5085822;27;20044;-80
2022/05/31 06:24:19;;;;;;;3.22;1.60;;;14.70;96.40;;;;;;5084877;28;20048;-82
2022/05/31 06:26:47;;;;;;;2.33;1.40;;;14.70;96.40;;;;;;5086284;27;20119;-83
2022/05/31 06:29:13;;;;;;;2.83;1.50;;;14.70;96.40;;;;;;5099375;27;20040;-78
2022/05/31 06:31:44;;;;;;;3.30;1.88;;;14.80;96.50;;;;;;5085849;27;20040;-79
2022/05/31 06:34:10;;;;;;;5.20;1.98;;;14.80;96.50;;;;;;5092192;28;20048;-76
2022/05/31 06:36:39;;;;;;;6.38;1.77;;;15.00;96.70;;;;;;5086337;28;20060;-78
2022/05/31 06:39:06;;;;;;;4.30;1.52;;;15.10;96.70;;;;;;5081883;27;20051;-79
2022/05/31 06:41:32;;;;;;;2.58;1.55;;;15.30;96.70;;;;;;5083760;27;20059;-78
2022/05/31 06:44:02;;;;;;;3.25;1.60;;;15.40;96.70;;;;;;5082986;28;20048;-77
2022/05/31 06:46:29;;;;;;;3.10;1.85;;;15.50;96.60;;;;;;5082136;28;20047;-78
2022/05/31 06:48:57;;;;;;;3.33;1.20;;;15.60;96.40;;;;;;5085250;27;20044;-76
2022/05/31 06:56:59;;;;;;;1.77;1.40;;;15.70;96.20;;;;;;5086044;28;20036;-77
2022/05/31 06:59:25;;;;;;;5.05;1.80;;;15.60;96.10;;;;;;5086262;28;20045;-77
2022/05/31 07:01:53;;;;;;;6.78;1.73;;;15.70;96.10;;;;;;5085938;27;20048;-77
2022/05/31 07:04:19;;;;;;;3.60;1.63;;;15.50;96.10;;;;;;5087558;28;20115;-77
2022/05/31 07:06:53;;;;;;;2.40;1.77;;;15.30;95.90;;;;;;5087851;28;20044;-77
2022/05/31 07:09:19;;;;;;;3.13;1.40;;;15.20;95.90;;;;;;5090378;27;20190;-77
2022/05/31 07:11:45;;;;;;;4.20;1.35;;;15.20;96.00;;;;;;5089143;28;20055;-76
2022/05/31 07:14:13;;;;;;;2.33;1.45;;;15.20;96.00;;;;;;5081472;27;20036;-77
2022/05/31 07:16:39;;;;;;;6.00;1.80;;;14.90;95.90;;;;;;5088459;28;20045;-79
2022/05/31 07:19:05;;;;;;;2.22;1.48;;;15.20;96.00;;;;;;5084198;28;20044;-77
2022/05/31 07:21:31;;;;;;;2.90;1.70;;;15.20;95.90;;;;;;5085628;27;20556;-77
2022/05/31 07:23:56;;;;;;;3.53;1.70;;;15.20;95.80;;;;;;5084855;27;20080;-77
2022/05/31 07:26:22;;;;;;;2.78;1.42;;;15.50;96.00;;;;;;5084227;27;20047;-76
2022/05/31 07:28:51;;;;;;;2.17;1.27;;;15.30;95.90;;;;;;5084571;27;20048;-77
2022/05/31 07:31:17;;;;;;;2.33;1.40;;;15.30;95.80;;;;;;5086003;28;20044;-77
2022/05/31 07:33:42;;;;;;;1.90;1.40;;;15.20;95.80;;;;;;5089769;27;20456;-77
2022/05/31 07:36:09;;;;;;;5.63;1.48;;;15.20;95.50;;;;;;5091105;28;20465;-76
2022/05/31 07:38:36;;;;;;;1.60;1.05;;;15.10;95.50;;;;;;5093808;28;20040;-77
2022/05/31 07:41:02;;;;;;;2.88;1.80;;;15.20;95.50;;;;;;5090681;27;20051;-76
2022/05/31 07:43:30;;;;;;;2.38;1.60;;;15.20;95.40;;;;;;5088709;28;20532;-76
2022/05/31 07:46:14;;;;;;;3.42;1.40;;;15.20;95.40;;;;;;5086061;27;20090;-76
2022/05/31 07:48:43;;;;;;;2.55;2.00;;;15.20;95.20;;;;;;5087181;28;20036;-76
2022/05/31 07:51:22;;;;;;;1.27;1.17;;;15.20;95.20;;;;;;5082901;27;20109;-75
2022/05/31 07:53:48;;;;;;;2.05;1.15;;;15.30;95.10;;;;;;5085040;27;20040;-75
2022/05/31 07:56:14;;;;;;;2.80;2.28;;;15.20;95.00;;;;;;5083298;28;20052;-76
2022/05/31 07:58:42;;;;;;;2.13;1.45;;;15.20;94.90;;;;;;5083747;27;20070;-76
2022/05/31 08:01:12;;;;;;;2.05;1.10;;;14.80;94.70;;;;;;5083895;27;20095;-76
2022/05/31 08:03:39;;;;;;;2.45;1.02;;;15.30;94.70;;;;;;5082994;28;20043;-75
2022/05/31 08:06:08;;;;;;;1.50;1.13;;;15.30;94.60;;;;;;5084699;28;20544;-76
2022/05/31 08:08:35;;;;;;;1.65;1.23;;;15.40;94.60;;;;;;5084669;27;20118;-77
2022/05/31 08:11:09;;;;;;;1.95;1.10;;;15.40;94.50;;;;;;5096560;27;22193;-75
2022/05/31 08:13:35;;;;;;;5.15;1.67;;;15.40;94.40;;;;;;5094318;27;20523;-77
2022/05/31 08:16:04;;;;;;;3.95;1.52;;;15.50;94.30;;;;;;5082250;28;20082;-76
2022/05/31 08:18:36;;;;;;;2.35;1.35;;;15.50;94.30;;;;;;5085025;28;20106;-76
2022/05/31 08:21:05;;;;;;;2.50;1.30;;;15.50;94.10;;;;;;5083683;28;20059;-76
2022/05/31 08:23:37;;;;;;;2.50;1.00;;;15.60;94.00;;;;;;5084215;28;20040;-76
2022/05/31 08:26:03;;;;;;;3.97;1.15;;;15.60;93.90;;;;;;5080994;27;20532;-76
2022/05/31 08:28:30;;;;;;;1.88;1.05;;;15.60;93.80;;;;;;5083130;28;20593;-76
2022/05/31 08:31:03;;;;;;;2.25;0.98;;;15.70;93.80;;;;;;5083059;28;20053;-77
2022/05/31 08:33:29;;;;;;;1.52;1.00;;;15.60;93.70;;;;;;5083154;27;20040;-76
2022/05/31 08:35:56;;;;;;;2.28;1.20;;;15.60;93.70;;;;;;5084840;27;20051;-77
2022/05/31 08:38:25;;;;;;;2.95;1.33;;;15.70;93.70;;;;;;5099396;27;20043;-77
2022/05/31 08:41:23;;;;;;;2.75;1.08;;;15.50;93.50;;;;;;5083389;27;20510;-77
2022/05/31 08:43:56;;;;;;;2.03;1.05;;;15.70;93.40;;;;;;5086188;27;20178;-76
2022/05/31 08:46:46;;;;;;;1.75;1.42;;;16.00;93.50;;;;;;5087615;27;20803;-77
2022/05/31 08:52:53;;;;;;;2.60;0.90;;;15.90;93.30;;;;;;5088650;27;20040;-76
2022/05/31 08:58:31;;;;;;;4.47;1.38;;;15.90;93.00;;;;;;5086618;28;20086;-77
2022/05/31 09:00:59;;;;;;;5.53;1.50;;;16.00;92.90;;;;;;5087144;28;20166;-76
2022/05/31 09:03:35;;;;;;;1.27;0.98;;;16.00;92.70;;;;;;5086937;27;20564;-76
2022/05/31 09:06:15;;;;;;;2.03;1.33;;;16.00;92.60;;;;;;5086830;27;20508;-77
2022/05/31 09:09:01;;;;;;;1.50;1.10;;;16.10;92.60;;;;;;5086147;28;20124;-76
2022/05/31 09:11:54;;;;;;;2.80;1.20;;;16.30;92.70;;;;;;5084728;27;20044;-76
2022/05/31 09:14:42;;;;;;;2.00;1.25;;;16.30;92.30;;;;;;5085593;28;20044;-77
2022/05/31 09:17:15;;;;;;;1.23;0.80;;;16.50;92.20;;;;;;5084027;27;20075;-76
2022/05/31 09:20:08;;;;;;;3.67;1.05;;;16.60;92.10;;;;;;5083500;27;20047;-77
2022/05/31 09:22:43;;;;;;;2.50;0.75;;;16.70;92.00;;;;;;5082730;27;20040;-76
2022/05/31 09:25:09;;;;;;;1.90;1.20;;;16.90;91.70;;;;;;5085016;27;21181;-77
2022/05/31 09:27:50;;;;;;;2.17;1.20;;;16.90;91.60;;;;;;5084622;28;20547;-78
2022/05/31 09:30:36;;;;;;;2.77;0.97;;;17.40;91.50;;;;;;5084026;27;20040;-78
2022/05/31 09:33:37;;;;;;;1.60;1.00;;;17.50;91.30;;;;;;5091006;27;20389;-78
2022/05/31 09:36:21;;;;;;;3.67;1.13;;;17.50;90.80;;;;;;5044137;28;20060;-77
2022/05/31 09:38:51;;;;;;;1.63;1.20;;;17.60;90.60;;;;;;5086516;28;20041;-77
2022/05/31 09:41:35;;;;;;;2.05;1.30;;;17.60;90.50;;;;;;5084105;27;20662;-78
2022/05/31 09:44:09;;;;;;;1.75;0.93;;;17.60;90.30;;;;;;5081480;28;20059;-76
2022/05/31 09:46:43;;;;;;;4.20;1.00;;;17.60;90.10;;;;;;5084331;28;20044;-76
2022/05/31 09:49:23;;;;;;;1.52;0.98;;;17.60;90.00;;;;;;5083444;27;20040;-77
2022/05/31 09:51:52;;;;;;;1.58;1.40;;;17.70;89.10;;;;;;5085035;27;20047;-77
2022/05/31 09:57:25;;;;;;;1.05;0.85;;;17.70;88.30;;;;;;5086412;28;20044;-78
2022/05/31 09:59:58;;;;;;;3.72;0.93;;;17.90;88.00;;;;;;5083744;28;20036;-76
2022/05/31 10:02:24;;;;;;;2.65;1.05;;;18.10;87.70;;;;;;5083378;27;20534;-77
2022/05/31 10:05:07;;;;;;;2.13;0.85;;;18.20;87.00;;;;;;5084930;28;20044;-78
2022/05/31 10:07:40;;;;;;;2.22;1.25;;;18.20;86.70;;;;;;5085772;28;20382;-76
2022/05/31 10:10:16;;;;;;;1.40;0.65;;;18.10;86.70;;;;;;5086276;27;20800;-78
2022/05/31 10:12:58;;;;;;;2.20;0.95;;;18.30;86.60;;;;;;5100603;27;20075;-77
2022/05/31 10:15:40;;;;;;;1.23;0.75;;;18.20;85.50;;;;;;5085267;28;20048;-76
2022/05/31 10:18:14;;;;;;;1.17;0.85;;;18.20;84.80;;;;;;5091120;27;20109;-78
2022/05/31 10:21:12;;;;;;;5.80;2.58;;;18.40;85.00;;;;;;5099536;27;20037;-77
2022/05/31 10:23:46;;;;;;;2.42;1.13;;;18.60;84.50;;;;;;5054009;28;20048;-77
2022/05/31 10:26:25;;;;;;;1.65;0.95;;;18.60;84.00;;;;;;5084127;28;20103;-78
2022/05/31 10:29:03;;;;;;;1.33;0.98;;;18.90;83.70;;;;;;5084785;28;20047;-78
2022/05/31 10:31:45;;;;;;;1.40;0.82;;;19.00;83.70;;;;;;5082397;27;20583;-77
2022/05/31 10:34:40;;;;;;;1.10;0.63;;;19.00;83.00;;;;;;5082633;27;20059;-77
2022/05/31 10:37:24;;;;;;;2.08;0.80;;;19.20;82.80;;;;;;5085947;28;20070;-77
2022/05/31 10:40:26;;;;;;;2.50;0.90;;;19.00;82.30;;;;;;5089877;28;20040;-79
2022/05/31 10:43:01;;;;;;;1.33;0.82;;;18.90;82.00;;;;;;5085437;27;20047;-79
2022/05/31 10:45:32;;;;;;;3.15;1.13;;;19.10;81.90;;;;;;5088465;27;20044;-77
2022/05/31 10:48:06;;;;;;;1.67;0.85;;;18.50;81.60;;;;;;5086820;28;20050;-77
2022/05/31 10:51:07;;;;;;;2.20;0.93;;;18.60;81.60;;;;;;5092273;27;20056;-78
2022/05/31 10:54:02;;;;;;;2.03;0.82;;;18.70;81.40;;;;;;5085937;27;20254;-78
2022/05/31 10:57:03;;;;;;;0.68;0.65;;;18.50;81.00;;;;;;5085929;27;20048;-78
2022/05/31 11:00:08;;;;;;;2.42;0.82;;;18.80;81.10;;;;;;5087879;27;20041;-77
2022/05/31 11:02:58;;;;;;;1.10;0.77;;;18.80;81.20;;;;;;5086128;28;20063;-77
2022/05/31 11:06:03;;;;;;;2.30;0.90;;;18.80;80.80;;;;;;5084938;28;20059;-78
2022/05/31 11:12:08;;;;;;;1.33;0.77;;;18.70;80.00;;;;;;5086473;27;20080;-78
2022/05/31 11:15:04;;;;;;;2.58;0.80;;;18.70;79.20;;;;;;5087175;27;20036;-77
2022/05/31 11:18:07;;;;;;;1.58;1.00;;;18.80;78.60;;;;;;5083627;28;20043;-78
2022/05/31 11:20:47;;;;;;;1.25;0.85;;;19.00;78.60;;;;;;5086192;27;20394;-78
2022/05/31 11:23:44;;;;;;;1.05;0.80;;;19.20;78.60;;;;;;5086954;27;20094;-77
2022/05/31 11:26:54;;;;;;;2.30;1.40;;;19.10;78.60;;;;;;5086252;28;20158;-77
2022/05/31 11:30:00;;;;;;;1.55;1.38;;;19.40;78.10;;;;;;5085910;27;20142;-77
2022/05/31 11:32:59;;;;;;;2.10;0.85;;;19.50;77.70;;;;;;5084704;27;20110;-77
2022/05/31 11:36:04;;;;;;;0.65;0.52;;;19.60;77.50;;;;;;5085370;27;20044;-77
2022/05/31 11:39:00;;;;;;;1.02;0.70;;;19.60;77.10;;;;;;5085069;27;20045;-83
2022/05/31 11:45:33;;;;;;;0.70;0.63;;;19.50;76.50;;;;;;5003478;28;20050;-79
2022/05/31 11:48:07;;;;;;;1.13;0.77;;;19.30;76.20;;;;;;5018370;28;20056;-79
2022/05/31 11:50:55;;;;;;;0.95;0.60;;;19.00;76.00;;;;;;5069694;27;20325;-84
2022/05/31 11:53:47;;;;;;;1.33;0.90;;;19.10;76.30;;;;;;5083908;28;21145;-79
2022/05/31 11:56:32;;;;;;;1.05;0.60;;;19.20;76.20;;;;;;5101230;27;20651;-79
2022/05/31 11:59:07;;;;;;;2.28;1.33;;;19.20;76.10;;;;;;5084607;28;20106;-79
2022/05/31 12:01:49;;;;;;;2.42;0.90;;;19.30;76.20;;;;;;5086575;28;20052;-79
2022/05/31 12:04:31;;;;;;;2.97;0.80;;;19.20;76.20;;;;;;5084975;27;20639;-78
2022/05/31 12:07:37;;;;;;;1.92;0.60;;;19.40;76.00;;;;;;5083643;28;20647;-79
2022/05/31 12:10:07;;;;;;;1.27;1.15;;;19.40;75.70;;;;;;5084185;28;20090;-80
2022/05/31 12:12:35;;;;;;;1.50;0.80;;;19.60;75.80;;;;;;5085342;27;20048;-79
2022/05/31 12:15:22;;;;;;;3.33;0.93;;;19.80;75.90;;;;;;5089288;28;20088;-78
2022/05/31 12:17:57;;;;;;;0.60;0.60;;;20.00;75.60;;;;;;5089938;27;21092;-80
2022/05/31 12:20:30;;;;;;;2.03;0.80;;;20.00;75.80;;;;;;5089786;27;20095;-78
2022/05/31 12:23:09;;;;;;;1.27;0.70;;;20.00;75.00;;;;;;5088836;28;20044;-80
2022/05/31 12:25:53;;;;;;;0.70;0.60;;;19.80;74.50;;;;;;5088828;27;20044;-79
2022/05/31 12:28:37;;;;;;;0.95;0.60;;;19.80;74.40;;;;;;5088706;28;20046;-79
2022/05/31 12:31:26;;;;;;;2.33;0.90;;;19.70;74.40;;;;;;5089180;27;20054;-79
2022/05/31 12:33:56;;;;;;;1.35;0.90;;;19.80;74.40;;;;;;5089727;28;20193;-79
2022/05/31 12:36:56;;;;;;;1.85;1.65;;;19.80;74.50;;;;;;5089716;27;20032;-79
2022/05/31 12:39:30;;;;;;;0.88;0.73;;;20.30;74.30;;;;;;5087977;28;20533;-79
2022/05/31 12:42:19;;;;;;;2.83;0.80;;;20.30;74.90;;;;;;5090985;27;20044;-79
2022/05/31 12:44:49;;;;;;;1.33;0.88;;;20.50;73.90;;;;;;5076523;28;20051;-79
2022/05/31 12:47:17;;;;;;;1.83;0.90;;;20.50;73.50;;;;;;5087958;27;20048;-79
2022/05/31 12:50:04;;;;;;;0.65;0.60;;;20.50;73.20;;;;;;5089639;27;20044;-79
2022/05/31 12:55:10;;;;;;;1.58;1.33;;;20.40;73.10;;;;;;5090287;27;20040;-79
2022/05/31 13:00:49;;;;;;;1.35;0.90;;;20.40;73.00;;;;;;5059447;28;20609;-78
2022/05/31 13:03:33;;;;;;;1.20;0.70;;;20.10;72.30;;;;;;5088320;28;20036;-79
2022/05/31 13:06:09;;;;;;;1.30;0.73;;;20.20;72.40;;;;;;5088705;27;20052;-79
2022/05/31 13:08:59;;;;;;;1.08;0.57;;;20.00;72.50;;;;;;5087127;28;20082;-79
2022/05/31 13:20:27;;;;;;;0.77;0.57;;;20.10;72.20;;;;;;5089074;28;20045;-79
2022/05/31 13:23:09;;;;;;;1.23;0.80;;;20.20;72.20;;;;;;5086449;27;20242;-79
2022/05/31 13:26:01;;;;;;;0.40;0.40;;;20.20;72.20;;;;;;5086396;27;20147;-79
2022/05/31 13:28:40;;;;;;;0.60;0.50;;;20.30;71.60;;;;;;5087117;27;20044;-79
2022/05/31 13:31:23;;;;;;;1.08;0.60;;;20.40;70.80;;;;;;5104133;27;20052;-78
2022/05/31 13:34:00;;;;;;;1.40;0.43;;;20.50;71.10;;;;;;5087444;28;20098;-79
2022/05/31 13:36:43;;;;;;;1.42;0.80;;;20.60;71.00;;;;;;5088723;28;20076;-79
2022/05/31 13:39:14;;;;;;;3.97;0.80;;;20.70;71.00;;;;;;5087671;27;20117;-79
2022/05/31 13:42:04;;;;;;;1.42;0.82;;;20.70;71.10;;;;;;5089629;27;20044;-80
2022/05/31 13:44:42;;;;;;;0.70;0.50;;;20.60;71.00;;;;;;5086284;27;20037;-79
2022/05/31 13:47:15;;;;;;;1.55;0.77;;;20.60;70.80;;;;;;5084542;27;20461;-80
2022/05/31 13:49:44;;;;;;;1.33;0.70;;;20.50;70.30;;;;;;5085834;28;20187;-79
2022/05/31 13:52:21;;;;;;;5.50;0.90;;;20.50;70.00;;;;;;5088456;27;20047;-78
2022/05/31 13:54:51;;;;;;;2.92;0.60;;;20.50;69.70;;;;;;5086181;27;20519;-80
2022/05/31 13:57:28;;;;;;;1.23;0.70;;;20.60;69.60;;;;;;5085852;28;20106;-79
2022/05/31 14:00:03;;;;;;;1.55;0.80;;;20.80;69.70;;;;;;5085458;27;20040;-80
2022/05/31 14:02:53;;;;;;;1.48;0.65;;;20.90;70.00;;;;;;5087065;27;20074;-80
2022/05/31 14:05:28;;;;;;;1.08;0.80;;;21.30;69.60;;;;;;5085825;27;20043;-80